Time;durP1;ratioP1;P1;durP2;ratioP2;P2;SDS_P1;SDS_P2;PMS_P1;PMS_P2;Temp;Humidity;BMP_temperature;BMP_pressure;BME280_temperature;BME280_humidity;BME280_pressure;Samples;Min_cycle;Max_cycle;Signal;HPM_P1;HPM_P2
2024/01/24 00:00:43;;;;;;;1.42;0.88;;;11.70;99.90;;;;;;5133926;27;20081;-65
2024/01/24 00:03:09;;;;;;;1.02;0.88;;;11.70;99.90;;;;;;5134210;27;20027;-64
2024/01/24 00:05:34;;;;;;;1.20;0.63;;;11.80;99.90;;;;;;5134149;28;20062;-65
2024/01/24 00:08:00;;;;;;;1.00;0.85;;;11.80;99.90;;;;;;5134111;28;20123;-64
2024/01/24 00:10:26;;;;;;;0.77;0.77;;;11.80;99.90;;;;;;5134108;28;20169;-64
2024/01/24 00:12:51;;;;;;;1.77;0.70;;;11.80;99.90;;;;;;5134303;28;20043;-64
2024/01/24 00:15:17;;;;;;;1.05;0.68;;;11.80;99.90;;;;;;5134017;28;20043;-64
2024/01/24 00:17:43;;;;;;;0.40;0.40;;;11.90;99.90;;;;;;5134077;28;20044;-65
2024/01/24 00:20:09;;;;;;;1.15;0.80;;;11.90;99.90;;;;;;5134028;28;20394;-64
2024/01/24 00:22:35;;;;;;;0.70;0.65;;;11.90;99.90;;;;;;5134036;28;20039;-64
2024/01/24 00:25:00;;;;;;;0.60;0.60;;;11.80;99.90;;;;;;5133939;28;20035;-64
2024/01/24 00:27:26;;;;;;;1.58;0.70;;;11.90;99.90;;;;;;5133965;28;20359;-64
2024/01/24 00:29:52;;;;;;;2.15;1.05;;;11.90;99.90;;;;;;5133872;28;20046;-64
2024/01/24 00:32:17;;;;;;;0.60;0.60;;;12.00;99.90;;;;;;5133925;28;20043;-64
2024/01/24 00:34:43;;;;;;;0.77;0.77;;;12.00;99.90;;;;;;5133487;28;20073;-65
2024/01/24 00:37:09;;;;;;;1.13;0.80;;;12.00;99.90;;;;;;5133894;28;20036;-64
2024/01/24 00:39:34;;;;;;;1.67;0.85;;;12.10;99.90;;;;;;5133770;28;20035;-64
2024/01/24 00:42:00;;;;;;;0.90;0.60;;;12.10;99.90;;;;;;5134005;28;20035;-60
2024/01/24 00:44:26;;;;;;;0.85;0.60;;;13.70;99.90;;;;;;5115440;28;20043;-60
2024/01/24 00:46:51;;;;;;;0.88;0.70;;;12.10;99.90;;;;;;5115477;28;20488;-60
2024/01/24 00:49:18;;;;;;;1.48;0.95;;;12.10;99.90;;;;;;5115189;28;20039;-61
2024/01/24 00:51:44;;;;;;;1.42;1.27;;;12.10;99.90;;;;;;5115353;28;20047;-59
2024/01/24 00:54:09;;;;;;;1.33;0.80;;;12.10;99.90;;;;;;5136492;27;20043;-60
2024/01/24 00:56:35;;;;;;;1.42;0.80;;;12.10;99.90;;;;;;5137853;27;20080;-60
2024/01/24 00:59:00;;;;;;;1.88;0.65;;;12.20;99.90;;;;;;5136306;27;20055;-60
2024/01/24 01:01:39;;;;;;;1.58;0.70;;;12.40;99.90;;;;;;5137555;27;20074;-61
2024/01/24 01:04:05;;;;;;;2.75;0.95;;;12.20;99.90;;;;;;5119147;27;20532;-60
2024/01/24 01:06:31;;;;;;;1.17;0.70;;;12.20;99.90;;;;;;5137275;27;20039;-60
2024/01/24 01:08:56;;;;;;;1.02;0.70;;;12.20;99.90;;;;;;5137257;27;20039;-60
2024/01/24 01:11:22;;;;;;;0.77;0.60;;;12.30;99.90;;;;;;5137473;27;20071;-60
2024/01/24 01:13:48;;;;;;;0.57;0.57;;;;;;;;;;5137350;27;20495;-60
2024/01/24 01:16:14;;;;;;;0.63;0.50;;;;;;;;;;5137064;27;20194;-60
2024/01/24 01:18:42;;;;;;;1.85;1.05;;;;;;;;;;5137114;27;20042;-60
2024/01/24 01:21:08;;;;;;;1.33;0.80;;;;;;;;;;5117722;27;20043;-60
2024/01/24 01:23:34;;;;;;;0.60;0.60;;;;;;;;;;5119304;27;20046;-72
2024/01/24 01:26:00;;;;;;;0.60;0.60;;;;;;;;;;5137848;27;20050;-72
2024/01/24 01:28:26;;;;;;;0.80;0.60;;;;;;;;;;5118903;27;20061;-73
2024/01/24 01:30:52;;;;;;;0.80;0.70;;;;;;;;;;5137388;27;20495;-73
2024/01/24 01:33:18;;;;;;;0.60;0.60;;;;;;;;;;5137762;27;20087;-74
2024/01/24 01:35:44;;;;;;;0.47;0.47;;;;;;;;;;5118948;27;20043;-73
2024/01/24 01:38:10;;;;;;;0.57;0.52;;;;;;;;;;5137281;27;20046;-73
2024/01/24 01:40:36;;;;;;;0.75;0.55;;;;;;;;;;5137067;27;20031;-74
2024/01/24 01:43:02;;;;;;;0.60;0.60;;;;;;;;;;5136964;27;20035;-72
2024/01/24 01:45:28;;;;;;;0.40;0.40;;;;;;;;;;5137047;27;20065;-73
2024/01/24 01:47:54;;;;;;;0.40;0.30;;;;;;;;;;5136921;27;20133;-75
2024/01/24 01:50:20;;;;;;;1.05;0.60;;;;;;;;;;5118564;27;20079;-72
2024/01/24 01:52:46;;;;;;;1.05;0.63;;;;;;;;;;5136884;27;20095;-66
2024/01/24 01:55:13;;;;;;;0.75;0.55;;;;;;;;;;5136398;27;20440;-64
2024/01/24 01:57:47;;;;;;;1.45;0.65;;;;;;;;;;5135086;27;20055;-64
2024/01/24 02:00:26;;;;;;;1.75;0.70;;;;;;;;;;5136357;27;20054;-64
2024/01/24 02:02:53;;;;;;;0.47;0.40;;;;;;;;;;5136367;27;20039;-64
2024/01/24 02:05:19;;;;;;;0.70;0.50;;;;;;;;;;5135836;27;20432;-65
2024/01/24 02:07:45;;;;;;;1.58;0.90;;;;;;;;;;5136279;27;20035;-64
2024/01/24 02:10:15;;;;;;;0.40;0.40;;;;;;;;;;5136245;27;20398;-65
2024/01/24 02:12:41;;;;;;;0.60;0.60;;;;;;;;;;5135824;27;20039;-64
2024/01/24 02:15:10;;;;;;;0.93;0.60;;;;;;;;;;5136027;27;20043;-66
2024/01/24 02:17:36;;;;;;;1.17;0.50;;;;;;;;;;5135832;27;20486;-66
2024/01/24 02:20:04;;;;;;;0.77;0.43;;;;;;;;;;5135977;27;20387;-66
2024/01/24 02:22:30;;;;;;;0.70;0.70;;;;;;;;;;5135907;27;20118;-65
2024/01/24 02:24:56;;;;;;;0.30;0.30;;;;;;;;;;5135891;27;20077;-65
2024/01/24 02:27:22;;;;;;;0.82;0.60;;;;;;;;;;5135874;27;20430;-65
2024/01/24 02:29:48;;;;;;;0.73;0.52;;;;;;;;;;5135844;27;20039;-65
2024/01/24 02:32:13;;;;;;;0.77;0.70;;;12.50;99.90;;;;;;5135753;27;20043;-65
2024/01/24 02:34:39;;;;;;;0.90;0.60;;;12.50;99.90;;;;;;5135855;27;20046;-60
2024/01/24 02:37:05;;;;;;;1.00;0.70;;;12.30;99.90;;;;;;5117474;27;20478;-60
2024/01/24 02:39:30;;;;;;;0.82;0.82;;;12.20;99.90;;;;;;5135969;27;20039;-61
2024/01/24 02:41:56;;;;;;;2.45;0.95;;;12.10;99.90;;;;;;5135625;27;20478;-60
2024/01/24 02:44:22;;;;;;;0.70;0.57;;;12.10;99.90;;;;;;5135460;27;20043;-60
2024/01/24 02:46:47;;;;;;;0.63;0.50;;;12.00;99.90;;;;;;5135704;27;20031;-60
2024/01/24 02:49:13;;;;;;;0.90;0.80;;;12.10;99.90;;;;;;5117025;27;20096;-60
2024/01/24 02:51:38;;;;;;;0.65;0.50;;;12.10;99.90;;;;;;5116988;27;20559;-60
2024/01/24 02:54:04;;;;;;;1.42;0.75;;;12.10;99.90;;;;;;5135590;27;20039;-60
2024/01/24 02:56:30;;;;;;;0.95;0.63;;;12.10;99.90;;;;;;5135442;27;20399;-60
2024/01/24 02:59:02;;;;;;;2.70;0.85;;;12.00;99.90;;;;;;5133810;27;20058;-61
2024/01/24 03:01:27;;;;;;;1.45;0.80;;;12.00;99.90;;;;;;5135447;27;20039;-60
2024/01/24 03:03:53;;;;;;;0.88;0.68;;;12.00;99.90;;;;;;5117142;27;20394;-64
2024/01/24 03:06:19;;;;;;;1.08;0.77;;;11.90;99.90;;;;;;5135034;27;20031;-64
2024/01/24 03:08:54;;;;;;;1.75;1.02;;;12.10;99.90;;;;;;5116398;27;20043;-65
2024/01/24 03:11:20;;;;;;;1.38;0.98;;;11.80;99.90;;;;;;5116554;27;20051;-64
2024/01/24 03:13:46;;;;;;;1.45;1.15;;;11.70;99.90;;;;;;5134572;27;20116;-65
2024/01/24 03:16:12;;;;;;;1.25;0.95;;;11.60;99.90;;;;;;5134037;27;20042;-65
2024/01/24 03:18:38;;;;;;;2.92;1.52;;;11.60;99.90;;;;;;5116168;27;20471;-64
2024/01/24 03:21:09;;;;;;;1.35;0.82;;;11.60;99.90;;;;;;5134835;27;20104;-65
2024/01/24 03:23:38;;;;;;;1.80;1.08;;;11.60;99.90;;;;;;5134815;27;20398;-65
2024/01/24 03:26:07;;;;;;;7.72;1.40;;;11.50;99.90;;;;;;5099059;27;20092;-65
2024/01/24 03:28:33;;;;;;;2.13;1.30;;;11.50;99.90;;;;;;5134631;27;20118;-65
2024/01/24 03:31:02;;;;;;;2.58;1.30;;;11.50;99.90;;;;;;5134623;27;20379;-65
2024/01/24 03:33:28;;;;;;;3.05;1.42;;;11.50;99.90;;;;;;5134611;27;20043;-65
2024/01/24 03:35:54;;;;;;;3.38;1.40;;;11.40;99.90;;;;;;5134497;27;20035;-64
2024/01/24 03:38:20;;;;;;;2.25;1.73;;;11.40;99.90;;;;;;5134520;27;20489;-65
2024/01/24 03:40:46;;;;;;;2.03;1.52;;;11.40;99.90;;;;;;5134528;27;20410;-65
2024/01/24 03:43:12;;;;;;;1.73;1.05;;;11.30;99.90;;;;;;5134415;27;20363;-65
2024/01/24 03:45:38;;;;;;;2.50;1.60;;;11.40;99.90;;;;;;5115964;27;20043;-64
2024/01/24 03:48:08;;;;;;;2.33;1.33;;;11.30;99.90;;;;;;5134332;27;20169;-65
2024/01/24 03:50:34;;;;;;;1.60;1.02;;;11.30;99.90;;;;;;5134368;27;20403;-64
2024/01/24 03:53:03;;;;;;;2.47;1.40;;;11.30;99.90;;;;;;5134042;27;20031;-64
2024/01/24 03:55:29;;;;;;;2.63;1.48;;;11.40;99.90;;;;;;5134091;27;20491;-64
2024/01/24 03:57:55;;;;;;;2.25;1.20;;;11.40;99.90;;;;;;5132920;27;20057;-64
2024/01/24 04:00:34;;;;;;;3.08;1.98;;;11.40;99.90;;;;;;5134211;27;20043;-64
2024/01/24 04:03:00;;;;;;;1.73;1.00;;;11.40;99.90;;;;;;5133920;27;20050;-64
2024/01/24 04:05:25;;;;;;;2.53;1.30;;;11.60;99.90;;;;;;5134138;27;20125;-64
2024/01/24 04:07:51;;;;;;;2.20;1.13;;;11.40;99.90;;;;;;5133858;28;20031;-64
2024/01/24 04:10:17;;;;;;;3.35;1.77;;;11.40;99.90;;;;;;5134158;28;20046;-64
2024/01/24 04:12:43;;;;;;;3.17;1.60;;;11.50;99.90;;;;;;5134125;28;20039;-64
2024/01/24 04:15:09;;;;;;;2.85;1.48;;;11.40;99.90;;;;;;5134134;28;20153;-60
2024/01/24 04:17:34;;;;;;;3.80;2.33;;;11.40;99.90;;;;;;5134293;28;20035;-60
2024/01/24 04:20:00;;;;;;;2.55;1.50;;;11.40;99.90;;;;;;5134352;28;20535;-60
2024/01/24 04:22:26;;;;;;;3.47;1.80;;;11.40;99.90;;;;;;5134257;28;20028;-59
2024/01/24 04:24:54;;;;;;;3.40;1.80;;;11.40;99.90;;;;;;5134290;28;20567;-59
2024/01/24 04:27:19;;;;;;;2.92;1.35;;;11.40;99.90;;;;;;5135918;27;20047;-59
2024/01/24 04:29:45;;;;;;;3.30;1.67;;;11.50;99.90;;;;;;5138171;27;20031;-60
2024/01/24 04:32:11;;;;;;;2.58;1.63;;;11.40;99.90;;;;;;5120139;27;20038;-60
2024/01/24 04:34:38;;;;;;;4.30;2.03;;;11.40;99.90;;;;;;5102805;27;20035;-60
2024/01/24 04:37:03;;;;;;;3.35;1.63;;;12.80;99.90;;;;;;5138005;27;20122;-60
2024/01/24 04:39:32;;;;;;;3.17;1.65;;;11.30;99.90;;;;;;5138126;27;20112;-60
2024/01/24 04:41:58;;;;;;;6.40;2.28;;;11.40;99.90;;;;;;5118961;27;20176;-60
2024/01/24 04:44:24;;;;;;;3.10;1.50;;;11.50;99.90;;;;;;5117139;27;20043;-60
2024/01/24 04:46:50;;;;;;;3.58;1.88;;;11.40;99.90;;;;;;5137681;27;20053;-60
2024/01/24 04:49:16;;;;;;;2.80;1.38;;;11.40;99.90;;;;;;5137671;27;20049;-60
2024/01/24 04:51:41;;;;;;;4.07;2.00;;;11.30;99.90;;;;;;5137942;27;20053;-60
2024/01/24 04:54:08;;;;;;;4.30;2.45;;;11.30;99.90;;;;;;5137420;27;20109;-60
2024/01/24 04:56:34;;;;;;;4.47;2.35;;;11.30;99.90;;;;;;5119063;27;20043;-64
2024/01/24 04:59:07;;;;;;;3.88;1.85;;;11.00;99.90;;;;;;5136097;27;20418;-64
2024/01/24 05:01:32;;;;;;;5.68;2.13;;;10.90;99.90;;;;;;5137270;27;20035;-64
2024/01/24 05:03:58;;;;;;;4.95;2.45;;;10.60;99.90;;;;;;5137474;27;20543;-64
2024/01/24 05:06:24;;;;;;;3.63;2.20;;;10.50;99.90;;;;;;5137402;27;20031;-64
2024/01/24 05:08:51;;;;;;;5.63;2.40;;;10.30;99.90;;;;;;5137387;27;20035;-63
2024/01/24 05:11:16;;;;;;;2.85;2.20;;;10.40;99.90;;;;;;5137314;27;20114;-64
2024/01/24 05:13:42;;;;;;;6.30;3.08;;;10.30;99.90;;;;;;5137057;27;20458;-64
2024/01/24 05:16:08;;;;;;;5.13;2.22;;;10.20;99.90;;;;;;5137257;27;20123;-67
2024/01/24 05:18:33;;;;;;;5.32;2.20;;;10.20;99.90;;;;;;5137227;27;20034;-63
2024/01/24 05:20:59;;;;;;;3.28;2.03;;;10.20;99.90;;;;;;5137116;27;20031;-64
2024/01/24 05:23:25;;;;;;;3.65;2.00;;;10.20;99.90;;;;;;5118668;27;20074;-64
2024/01/24 05:25:51;;;;;;;4.47;2.00;;;10.30;99.90;;;;;;5137259;27;20124;-60
2024/01/24 05:28:16;;;;;;;4.95;2.72;;;10.30;99.90;;;;;;5137198;27;20047;-60
2024/01/24 05:30:44;;;;;;;5.50;2.75;;;10.40;99.90;;;;;;5137117;27;20039;-59
2024/01/24 05:33:13;;;;;;;4.13;2.20;;;10.40;99.90;;;;;;5137116;27;20036;-60
2024/01/24 05:35:38;;;;;;;4.55;2.83;;;10.50;99.90;;;;;;5118374;27;20042;-59
2024/01/24 05:38:04;;;;;;;5.05;2.47;;;10.50;99.90;;;;;;5118138;28;20038;-59
2024/01/24 05:40:30;;;;;;;4.60;2.53;;;10.50;99.90;;;;;;5118179;27;20123;-60
2024/01/24 05:42:56;;;;;;;6.13;2.53;;;10.50;99.90;;;;;;5137001;27;20031;-60
2024/01/24 05:45:23;;;;;;;4.45;2.42;;;10.50;99.90;;;;;;5136891;27;20045;-59
2024/01/24 05:47:48;;;;;;;4.18;2.35;;;10.50;99.90;;;;;;5118265;27;20158;-60
2024/01/24 05:50:14;;;;;;;5.18;2.67;;;10.50;99.90;;;;;;5136794;27;20446;-60
2024/01/24 05:52:44;;;;;;;5.20;2.70;;;10.40;99.90;;;;;;5136749;27;20039;-59
2024/01/24 05:55:11;;;;;;;7.28;3.03;;;10.50;99.90;;;;;;5101203;27;20094;-60
2024/01/24 05:57:41;;;;;;;4.75;2.90;;;10.40;99.90;;;;;;5135822;27;20046;-61
2024/01/24 06:00:21;;;;;;;5.82;3.25;;;10.40;99.90;;;;;;5095741;28;20407;-60
2024/01/24 06:02:47;;;;;;;5.38;2.97;;;10.40;99.90;;;;;;5095531;28;20548;-60
2024/01/24 06:05:15;;;;;;;7.43;3.22;;;10.40;99.90;;;;;;5095412;28;20114;-65
2024/01/24 06:07:40;;;;;;;4.07;3.03;;;10.40;99.90;;;;;;5095232;28;20078;-65
2024/01/24 06:10:07;;;;;;;3.47;2.47;;;10.40;99.90;;;;;;5095252;28;20048;-64
2024/01/24 06:12:33;;;;;;;6.72;2.47;;;10.30;99.90;;;;;;5094897;28;20149;-65
2024/01/24 06:14:58;;;;;;;4.10;2.22;;;10.30;99.90;;;;;;5095106;28;20056;-64
2024/01/24 06:17:24;;;;;;;6.53;3.45;;;10.30;99.90;;;;;;5094849;28;20036;-65
2024/01/24 06:19:51;;;;;;;6.25;2.20;;;10.30;99.90;;;;;;5094723;28;20499;-65
2024/01/24 06:22:17;;;;;;;5.15;2.85;;;10.30;99.90;;;;;;5095110;28;20480;-66
2024/01/24 06:24:44;;;;;;;5.15;2.88;;;10.20;99.90;;;;;;5094975;28;20050;-66
2024/01/24 06:27:10;;;;;;;7.43;3.10;;;10.20;99.90;;;;;;5094948;28;20040;-64
2024/01/24 06:29:36;;;;;;;5.13;2.58;;;10.20;99.90;;;;;;5094826;28;20448;-64
2024/01/24 06:32:01;;;;;;;5.10;3.05;;;10.20;99.90;;;;;;5094781;28;20068;-64
2024/01/24 06:34:27;;;;;;;6.80;3.33;;;10.20;99.90;;;;;;5094692;28;20484;-65
2024/01/24 06:36:53;;;;;;;4.95;2.40;;;10.20;99.90;;;;;;5094876;28;20039;-58
2024/01/24 06:39:19;;;;;;;10.68;4.13;;;10.20;99.90;;;;;;5094529;28;20115;-61
2024/01/24 06:41:45;;;;;;;7.95;3.17;;;10.20;99.90;;;;;;5094669;28;20070;-60
2024/01/24 06:44:10;;;;;;;4.35;3.15;;;10.20;99.90;;;;;;5093309;28;20043;-60
2024/01/24 06:46:44;;;;;;;9.55;3.45;;;10.30;99.90;;;;;;5093115;28;20816;-60
2024/01/24 06:49:10;;;;;;;6.10;2.65;;;10.20;99.90;;;;;;5094475;28;20036;-60
2024/01/24 06:51:39;;;;;;;6.30;3.35;;;10.30;99.90;;;;;;5094302;28;20032;-60
2024/01/24 06:54:06;;;;;;;3.72;2.38;;;10.30;99.90;;;;;;5092834;28;20047;-60
2024/01/24 06:56:32;;;;;;;6.75;2.55;;;10.20;99.30;;;;;;5094454;28;20035;-60
2024/01/24 06:59:03;;;;;;;7.63;3.65;;;10.30;96.90;;;;;;5114277;27;20057;-60
2024/01/24 07:01:42;;;;;;;3.50;2.42;;;10.30;94.40;;;;;;5135468;27;20069;-63
2024/01/24 07:04:08;;;;;;;6.60;2.50;;;10.30;93.80;;;;;;5135084;27;20114;-65
2024/01/24 07:06:34;;;;;;;5.82;3.00;;;10.30;85.70;;;;;;5135088;27;20070;-64
2024/01/24 07:08:59;;;;;;;5.30;2.63;;;10.30;80.00;;;;;;5116377;27;20126;-65
2024/01/24 07:11:25;;;;;;;3.88;2.08;;;10.30;82.20;;;;;;5135020;27;20467;-67
2024/01/24 07:13:50;;;;;;;6.45;2.47;;;10.30;81.30;;;;;;5134980;27;20053;-66
2024/01/24 07:16:16;;;;;;;5.05;2.78;;;10.30;70.90;;;;;;5134974;27;20056;-74
2024/01/24 07:18:42;;;;;;;5.75;2.28;;;10.40;61.00;;;;;;5135301;27;20042;-72
2024/01/24 07:21:08;;;;;;;5.57;2.58;;;10.40;66.20;;;;;;5118119;27;20047;-75
2024/01/24 07:23:33;;;;;;;6.35;3.22;;;10.40;66.80;;;;;;5116678;27;20051;-74
2024/01/24 07:25:59;;;;;;;5.32;2.28;;;10.30;73.40;;;;;;5135325;27;20060;-75
2024/01/24 07:28:29;;;;;;;6.18;2.38;;;10.30;80.10;;;;;;5135403;27;20506;-74
2024/01/24 07:30:54;;;;;;;5.40;2.75;;;10.50;84.70;;;;;;5135142;27;20053;-72
2024/01/24 07:33:21;;;;;;;2.78;1.48;;;10.20;87.80;;;;;;5116865;27;20038;-73
2024/01/24 07:35:46;;;;;;;5.47;2.85;;;10.20;91.70;;;;;;5135034;27;20079;-74
2024/01/24 07:38:12;;;;;;;5.03;2.97;;;10.20;94.60;;;;;;5135141;27;20458;-74
2024/01/24 07:40:38;;;;;;;4.93;3.15;;;10.20;96.30;;;;;;5135402;27;20035;-74
2024/01/24 07:43:04;;;;;;;6.18;3.10;;;10.20;97.70;;;;;;5135124;27;20084;-74
2024/01/24 07:45:29;;;;;;;8.52;3.70;;;10.10;99.70;;;;;;5116581;27;20047;-73
2024/01/24 07:47:55;;;;;;;4.95;3.00;;;10.10;99.90;;;;;;5135236;27;20503;-73
2024/01/24 07:50:21;;;;;;;7.55;3.22;;;10.10;99.90;;;;;;5134830;27;20042;-74
2024/01/24 07:52:46;;;;;;;4.47;3.15;;;10.10;99.90;;;;;;5134775;27;20450;-74
2024/01/24 07:55:13;;;;;;;6.60;3.17;;;10.10;99.90;;;;;;5116328;27;20513;-74
2024/01/24 07:57:39;;;;;;;4.93;2.97;;;10.10;99.90;;;;;;5134983;27;20547;-74
2024/01/24 08:00:16;;;;;;;6.82;3.22;;;10.10;99.90;;;;;;5112120;28;20056;-72
2024/01/24 08:02:43;;;;;;;4.53;2.47;;;10.10;99.90;;;;;;5112413;28;20129;-73
2024/01/24 08:05:12;;;;;;;5.05;2.83;;;10.20;99.90;;;;;;5113924;28;20046;-74
2024/01/24 08:07:40;;;;;;;4.75;2.83;;;10.10;99.90;;;;;;5114410;28;20440;-74
2024/01/24 08:10:06;;;;;;;6.13;3.25;;;10.00;99.90;;;;;;5114073;28;20047;-74
2024/01/24 08:12:31;;;;;;;5.55;3.17;;;10.10;99.90;;;;;;5113779;28;20687;-74
2024/01/24 08:14:57;;;;;;;6.25;3.10;;;10.00;99.90;;;;;;5114026;28;20042;-65
2024/01/24 08:17:23;;;;;;;5.90;2.55;;;10.10;99.90;;;;;;5113466;28;20040;-65
2024/01/24 08:19:48;;;;;;;7.55;3.45;;;10.20;99.90;;;;;;5113139;28;20078;-65
2024/01/24 08:22:14;;;;;;;5.20;3.05;;;10.00;99.90;;;;;;5113596;28;20118;-65
2024/01/24 08:24:39;;;;;;;5.97;3.78;;;10.10;99.80;;;;;;5113524;28;20035;-73
2024/01/24 08:27:05;;;;;;;5.40;3.47;;;10.10;98.80;;;;;;5113504;28;20043;-64
2024/01/24 08:29:31;;;;;;;3.88;2.15;;;10.10;97.70;;;;;;5113294;28;20050;-63
2024/01/24 08:31:56;;;;;;;6.45;2.90;;;10.40;99.50;;;;;;5112981;28;20510;-64
2024/01/24 08:34:22;;;;;;;6.40;2.65;;;10.10;97.90;;;;;;5111580;28;20149;-64
2024/01/24 08:36:47;;;;;;;5.38;2.55;;;10.10;94.00;;;;;;5113061;28;20090;-64
2024/01/24 08:39:14;;;;;;;5.90;3.08;;;10.10;94.30;;;;;;5112016;28;20467;-64
2024/01/24 08:41:40;;;;;;;5.40;2.90;;;10.20;94.00;;;;;;5113283;28;20047;-64
2024/01/24 08:44:06;;;;;;;5.97;3.33;;;10.20;95.10;;;;;;5113320;28;20032;-64
2024/01/24 08:46:32;;;;;;;3.95;2.58;;;10.20;92.50;;;;;;5113259;28;20069;-64
2024/01/24 08:48:57;;;;;;;4.95;2.85;;;10.20;92.20;;;;;;5113241;28;20124;-64
2024/01/24 08:51:25;;;;;;;4.22;2.67;;;10.70;93.10;;;;;;5113188;28;20482;-63
2024/01/24 08:53:50;;;;;;;3.22;2.10;;;10.20;91.60;;;;;;5113300;28;20122;-64
2024/01/24 08:56:16;;;;;;;4.78;3.08;;;10.20;92.70;;;;;;5113152;28;20177;-64
2024/01/24 08:58:48;;;;;;;4.45;2.95;;;10.20;93.90;;;;;;5116869;28;20066;-64
2024/01/24 09:01:28;;;;;;;5.28;2.65;;;10.20;93.50;;;;;;5133649;28;20043;-65
2024/01/24 09:03:53;;;;;;;5.53;2.45;;;10.20;93.10;;;;;;5133702;28;20031;-63
2024/01/24 09:06:20;;;;;;;7.70;3.75;;;10.20;94.10;;;;;;5133594;28;20584;-64
2024/01/24 09:08:51;;;;;;;5.72;3.05;;;10.20;93.80;;;;;;5133579;28;20096;-64
2024/01/24 09:11:17;;;;;;;5.50;3.15;;;10.20;94.60;;;;;;5114957;28;20041;-64
2024/01/24 09:13:43;;;;;;;8.13;3.47;;;10.20;94.60;;;;;;5134344;27;20031;-64
2024/01/24 09:16:09;;;;;;;8.93;3.35;;;10.20;93.80;;;;;;5137248;27;20035;-64
2024/01/24 09:18:35;;;;;;;6.35;3.13;;;10.20;94.70;;;;;;5137167;27;20084;-63
2024/01/24 09:21:01;;;;;;;7.57;3.35;;;10.10;96.10;;;;;;5136876;27;20038;-64
2024/01/24 09:23:26;;;;;;;6.70;3.53;;;10.10;95.00;;;;;;5137014;27;20115;-63
2024/01/24 09:25:52;;;;;;;6.32;3.55;;;10.10;94.90;;;;;;5137504;27;20126;-73
2024/01/24 09:28:18;;;;;;;6.90;3.92;;;10.10;94.90;;;;;;5137611;27;20475;-73
2024/01/24 09:30:44;;;;;;;5.68;3.03;;;10.10;93.10;;;;;;5118938;27;20104;-71
2024/01/24 09:33:09;;;;;;;6.57;3.88;;;10.10;93.90;;;;;;5118662;27;20122;-72
2024/01/24 09:35:35;;;;;;;5.07;2.63;;;10.10;88.30;;;;;;5136951;27;20050;-65
2024/01/24 09:38:00;;;;;;;5.78;2.67;;;10.20;92.70;;;;;;5136847;27;20039;-66
2024/01/24 09:40:26;;;;;;;6.25;3.03;;;10.20;89.10;;;;;;5136750;27;20497;-65
2024/01/24 09:42:52;;;;;;;3.25;2.58;;;10.20;87.00;;;;;;5136366;27;20039;-67
2024/01/24 09:45:18;;;;;;;5.28;3.10;;;10.30;85.60;;;;;;5136657;27;20043;-64
2024/01/24 09:47:46;;;;;;;7.47;3.38;;;10.40;69.10;;;;;;5136661;27;20080;-64
2024/01/24 09:50:13;;;;;;;4.82;2.38;;;10.40;80.30;;;;;;5136731;27;20110;-64
2024/01/24 09:52:40;;;;;;;4.40;2.58;;;10.50;68.30;;;;;;5136606;27;20053;-64
2024/01/24 09:55:09;;;;;;;5.25;2.40;;;10.50;62.50;;;;;;5136156;27;20177;-64
2024/01/24 09:57:35;;;;;;;8.00;3.50;;;10.50;63.10;;;;;;5136493;27;20436;-63
2024/01/24 10:00:09;;;;;;;5.03;2.40;;;10.50;58.00;;;;;;5134914;27;20521;-64
2024/01/24 10:02:48;;;;;;;5.18;2.47;;;10.50;59.60;;;;;;5136365;27;20050;-64
2024/01/24 10:05:17;;;;;;;6.18;2.75;;;10.50;56.80;;;;;;5136096;27;20047;-64
2024/01/24 10:07:43;;;;;;;4.00;2.40;;;10.60;61.70;;;;;;5136324;27;20050;-63
2024/01/24 10:10:12;;;;;;;4.30;2.38;;;10.80;47.60;;;;;;5136297;27;20129;-64
2024/01/24 10:12:39;;;;;;;4.55;2.50;;;10.60;57.20;;;;;;5135839;27;20039;-63
2024/01/24 10:15:05;;;;;;;4.88;2.88;;;10.60;48.60;;;;;;5117366;27;20452;-64
2024/01/24 10:17:31;;;;;;;5.72;3.00;;;10.60;52.00;;;;;;5135813;27;20031;-64
2024/01/24 10:19:58;;;;;;;4.07;2.50;;;10.60;51.10;;;;;;5135804;27;20043;-64
2024/01/24 10:22:24;;;;;;;7.13;3.45;;;10.60;47.20;;;;;;5136025;27;20118;-64
2024/01/24 10:24:50;;;;;;;6.30;2.75;;;10.60;49.80;;;;;;5135659;27;20482;-64
2024/01/24 10:27:16;;;;;;;5.30;3.10;;;10.60;52.90;;;;;;5135913;27;20085;-64
2024/01/24 10:29:44;;;;;;;3.92;2.40;;;10.60;50.30;;;;;;5135854;27;20039;-64
2024/01/24 10:32:10;;;;;;;7.55;2.50;;;10.50;47.40;;;;;;5135666;27;20035;-64
2024/01/24 10:34:39;;;;;;;3.45;2.20;;;10.60;41.30;;;;;;5116944;27;20483;-65
2024/01/24 10:37:08;;;;;;;4.03;2.03;;;10.60;52.90;;;;;;5138208;27;20045;-72
2024/01/24 10:39:35;;;;;;;4.05;2.38;;;10.50;44.00;;;;;;5118876;27;20051;-71
2024/01/24 10:42:08;;;;;;;3.72;2.55;;;10.60;38.00;;;;;;5100734;27;20081;-73
2024/01/24 10:44:35;;;;;;;4.80;2.70;;;10.60;54.00;;;;;;5136505;27;20104;-72
2024/01/24 10:47:04;;;;;;;5.05;2.08;;;10.60;47.00;;;;;;5135651;27;20035;-65
2024/01/24 10:49:31;;;;;;;4.70;3.15;;;10.70;45.90;;;;;;5135451;27;20127;-66
2024/01/24 10:51:57;;;;;;;4.18;2.63;;;10.70;42.10;;;;;;5117020;27;20046;-65
2024/01/24 10:54:23;;;;;;;4.45;2.80;;;10.70;45.70;;;;;;5135268;27;20035;-66
2024/01/24 10:56:50;;;;;;;3.25;2.40;;;10.60;51.30;;;;;;5135188;27;20043;-67
2024/01/24 10:59:23;;;;;;;3.00;2.10;;;10.60;32.10;;;;;;5133235;27;20043;-64
2024/01/24 11:02:02;;;;;;;3.05;2.17;;;10.60;33.10;;;;;;5135216;27;20039;-64
2024/01/24 11:04:28;;;;;;;5.82;2.55;;;10.70;33.50;;;;;;5134876;27;20042;-64
2024/01/24 11:07:00;;;;;;;3.13;2.20;;;10.70;36.10;;;;;;5134827;27;20032;-64
2024/01/24 11:10:04;;;;;;;4.00;2.28;;;10.70;15.90;;;;;;5135064;27;20043;-64
2024/01/24 11:12:30;;;;;;;6.15;2.15;;;10.80;17.50;;;;;;5133968;27;20051;-63
2024/01/24 11:15:05;;;;;;;6.07;2.50;;;10.80;18.50;;;;;;5134942;27;20487;-63
2024/01/24 11:17:32;;;;;;;4.20;2.08;;;10.80;18.30;;;;;;5134932;27;20031;-63
2024/01/24 11:19:58;;;;;;;5.78;2.78;;;10.70;29.30;;;;;;5134590;27;20394;-64
2024/01/24 11:22:25;;;;;;;4.35;2.10;;;10.80;22.10;;;;;;5134834;27;20046;-63
2024/01/24 11:24:52;;;;;;;3.55;1.92;;;10.90;21.10;;;;;;5116149;27;20053;-63
2024/01/24 11:27:35;;;;;;;4.68;2.65;;;10.90;4.30;;;;;;5134716;27;20589;-65
2024/01/24 11:30:21;;;;;;;3.83;1.60;;;10.80;14.60;;;;;;5134393;27;20074;-65
2024/01/24 11:32:47;;;;;;;6.00;2.05;;;10.80;18.30;;;;;;5134646;27;20115;-64
2024/01/24 11:35:38;;;;;;;4.90;2.58;;;10.90;9.40;;;;;;5134565;27;20122;-63
2024/01/24 11:38:26;;;;;;;6.57;2.53;;;10.90;9.90;;;;;;5133991;27;20031;-64
2024/01/24 11:41:16;;;;;;;5.13;2.38;;;10.90;15.50;;;;;;5134119;27;20035;-63
2024/01/24 11:43:45;;;;;;;4.43;2.20;;;10.90;27.70;;;;;;5120328;27;20047;-63
2024/01/24 11:46:11;;;;;;;4.90;2.67;;;10.90;12.00;;;;;;5134263;27;20379;-73
2024/01/24 11:48:38;;;;;;;3.60;2.13;;;10.80;14.00;;;;;;5134726;27;20043;-72
2024/01/24 11:51:07;;;;;;;3.85;1.95;;;10.80;17.30;;;;;;5134631;27;20047;-71
2024/01/24 11:53:33;;;;;;;3.47;1.70;;;10.80;24.80;;;;;;5134388;27;20407;-73
2024/01/24 11:56:02;;;;;;;4.28;2.60;;;10.80;9.50;;;;;;5115692;27;20051;-60
2024/01/24 11:58:42;;;;;;;3.05;2.00;;;10.80;13.20;;;;;;5134122;27;20393;-60
2024/01/24 12:01:21;;;;;;;5.18;2.30;;;10.80;18.50;;;;;;5115455;27;20074;-60
2024/01/24 12:03:48;;;;;;;4.10;2.10;;;10.80;18.80;;;;;;5134218;27;20383;-59
2024/01/24 12:06:14;;;;;;;3.80;2.35;;;10.80;4.90;;;;;;5133850;27;20039;-60
2024/01/24 12:08:41;;;;;;;4.75;2.80;;;13.00;13.00;;;;;;5134248;27;20115;-60
2024/01/24 12:11:10;;;;;;;3.22;1.98;;;11.00;8.30;;;;;;5134293;28;20050;-59
2024/01/24 12:13:42;;;;;;;3.88;1.85;;;11.10;3.10;;;;;;5134259;28;20483;-60
2024/01/24 12:16:08;;;;;;;4.22;2.55;;;11.00;1.00;;;;;;5134169;28;20165;-60
2024/01/24 12:18:37;;;;;;;5.18;2.83;;;12.30;1.00;;;;;;5134240;28;20429;-59
2024/01/24 12:21:09;;;;;;;4.97;2.20;;;11.10;6.00;;;;;;5134293;28;20027;-60
2024/01/24 12:23:35;;;;;;;3.70;2.08;;;11.10;12.90;;;;;;5134361;28;20035;-60
2024/01/24 12:26:00;;;;;;;6.25;2.92;;;11.00;16.20;;;;;;5115651;28;20043;-60
2024/01/24 12:28:26;;;;;;;5.32;2.92;;;11.00;11.30;;;;;;5115620;28;20402;-60
2024/01/24 12:30:53;;;;;;;3.35;2.42;;;11.20;9.90;;;;;;5133939;28;20039;-60
2024/01/24 12:33:19;;;;;;;2.90;1.90;;;10.90;1.90;;;;;;5134308;28;20091;-60
2024/01/24 12:35:48;;;;;;;6.47;2.92;;;10.90;7.90;;;;;;5134009;28;20065;-60
2024/01/24 12:38:15;;;;;;;3.95;1.88;;;10.90;23.10;;;;;;5115512;28;20410;-60
2024/01/24 12:40:40;;;;;;;2.72;1.63;;;11.10;14.60;;;;;;5134180;28;20058;-60
2024/01/24 12:43:07;;;;;;;3.15;2.13;;;11.10;11.10;;;;;;5134087;28;20027;-60
2024/01/24 12:45:32;;;;;;;4.35;2.35;;;11.30;3.60;;;;;;5133580;28;20047;-59
2024/01/24 12:47:59;;;;;;;3.75;2.08;;;11.10;7.60;;;;;;5116612;27;20057;-59
2024/01/24 12:50:24;;;;;;;4.03;2.25;;;12.70;1.00;;;;;;5119693;27;20075;-60
2024/01/24 12:52:50;;;;;;;4.55;2.55;;;11.30;2.60;;;;;;5137742;27;20492;-60
2024/01/24 12:55:16;;;;;;;3.97;2.50;;;11.10;1.00;;;;;;5137985;27;20042;-59
2024/01/24 12:57:44;;;;;;;4.82;2.75;;;11.10;1.00;;;;;;5137536;27;20088;-60